Time;durP1;ratioP1;P1;durP2;ratioP2;P2;SDS_P1;SDS_P2;PMS_P1;PMS_P2;Temp;Humidity;BMP_temperature;BMP_pressure;BME280_temperature;BME280_humidity;BME280_pressure;Samples;Min_cycle;Max_cycle;Signal;HPM_P1;HPM_P2
2021/01/05 00:00:12;;;;;;;16.73;12.48;;;4.30;99.90;;;3.54;87.33;101016.75;4120863;28;20502;-71
2021/01/05 00:02:13;;;;;;;17.38;12.70;;;4.40;99.90;;;3.54;86.77;101021.97;4113599;28;20038;-71
2021/01/05 00:04:15;;;;;;;17.05;12.27;;;4.30;99.90;;;3.41;86.90;101021.97;4103364;29;20042;-71
2021/01/05 00:06:15;;;;;;;17.35;12.85;;;4.20;99.90;;;3.45;87.18;101014.78;4103630;28;20031;-71
2021/01/05 00:08:16;;;;;;;16.70;12.63;;;4.30;99.90;;;3.45;87.74;101014.78;4119597;28;20030;-71
2021/01/05 00:10:18;;;;;;;16.52;12.05;;;4.30;99.90;;;3.50;86.57;101023.94;4103331;29;20053;-71
2021/01/05 00:12:19;;;;;;;19.38;13.25;;;4.30;99.90;;;3.52;86.91;101024.69;4119359;28;20022;-71
2021/01/05 00:14:20;;;;;;;18.80;12.52;;;4.20;99.90;;;3.54;86.51;101029.78;4120739;28;20027;-71
2021/01/05 00:16:28;;;;;;;19.02;12.88;;;4.30;99.90;;;3.61;86.96;101018.03;4120724;28;20027;-71
2021/01/05 00:18:29;;;;;;;18.27;12.85;;;4.30;99.90;;;3.73;86.29;101025.00;4102929;29;20043;-71
2021/01/05 00:20:32;;;;;;;17.77;12.60;;;4.20;99.90;;;3.83;85.58;101036.47;4120334;28;20023;-71
2021/01/05 00:22:33;;;;;;;17.60;12.40;;;4.40;99.90;;;3.70;86.03;101025.22;4120553;28;20114;-71
2021/01/05 00:24:35;;;;;;;16.02;12.23;;;4.40;99.90;;;3.74;84.86;101039.69;4120400;28;20026;-71
2021/01/05 00:26:37;;;;;;;17.45;12.35;;;4.40;99.90;;;3.65;85.68;101027.28;4130326;28;20034;-71
2021/01/05 00:28:38;;;;;;;19.95;13.38;;;4.40;99.90;;;3.69;86.11;101034.81;4120294;28;20438;-71
2021/01/05 00:30:39;;;;;;;19.33;13.63;;;4.40;99.90;;;3.70;85.09;101035.66;4130478;28;20046;-71
2021/01/05 00:32:44;;;;;;;15.20;11.95;;;4.40;99.90;;;3.69;86.34;101040.03;4118069;28;20050;-71
2021/01/05 00:34:46;;;;;;;19.08;13.73;;;4.40;99.90;;;3.60;85.77;101040.66;4103068;29;20035;-71
2021/01/05 00:36:47;;;;;;;15.90;12.20;;;4.40;99.90;;;3.61;85.96;101033.66;4118881;28;20034;-71
2021/01/05 00:38:48;;;;;;;19.73;13.60;;;4.40;99.90;;;3.66;86.09;101039.41;4107978;28;20031;-71
2021/01/05 00:40:48;;;;;;;20.48;14.40;;;4.40;99.90;;;3.46;86.28;101035.53;4102916;29;20037;-71
2021/01/05 00:42:50;;;;;;;17.80;13.15;;;4.40;99.90;;;3.52;86.28;101031.69;4120202;28;20046;-71
2021/01/05 00:44:50;;;;;;;20.17;14.02;;;4.30;99.90;;;3.56;85.87;101033.13;4102956;29;20031;-71
2021/01/05 00:46:51;;;;;;;18.63;13.02;;;4.30;99.90;;;3.65;85.80;101035.94;4107060;28;20125;-71
2021/01/05 00:48:52;;;;;;;19.25;13.65;;;4.30;99.90;;;3.52;85.59;101039.50;4118991;28;20030;-71
2021/01/05 00:50:53;;;;;;;20.70;13.52;;;4.30;99.90;;;3.47;86.83;101036.34;4102941;29;20066;-71
2021/01/05 00:52:54;;;;;;;17.80;12.57;;;4.30;99.90;;;3.30;86.43;101043.56;4120078;28;20026;-71
2021/01/05 00:54:55;;;;;;;19.02;13.23;;;2.90;99.90;;;3.10;87.29;101027.56;4107191;28;20034;-71
2021/01/05 00:57:03;;;;;;;21.05;14.05;;;4.30;99.90;;;3.25;88.10;101034.38;4119960;28;20073;-71
2021/01/05 00:59:05;;;;;;;17.98;14.15;;;4.20;99.90;;;3.10;88.41;101040.59;4128887;28;20041;-71
2021/01/05 01:01:06;;;;;;;20.90;14.30;;;4.10;99.90;;;3.16;88.18;101033.22;4102643;29;20495;-71
2021/01/05 01:03:07;;;;;;;19.98;13.95;;;4.10;99.90;;;3.38;87.63;101042.19;4120035;28;20348;-71
2021/01/05 01:05:09;;;;;;;21.70;14.27;;;4.10;99.90;;;3.39;87.24;101042.09;4119872;28;20041;-71
2021/01/05 01:07:09;;;;;;;18.77;13.90;;;4.20;99.90;;;3.37;87.71;101035.31;4118592;28;20035;-71
2021/01/05 01:09:10;;;;;;;19.83;14.18;;;4.20;99.90;;;3.36;87.10;101034.47;4118610;28;20598;-71
2021/01/05 01:11:12;;;;;;;22.63;15.55;;;4.20;99.90;;;3.43;86.37;101042.72;4102579;29;20118;-71
2021/01/05 01:13:13;;;;;;;19.75;13.80;;;4.20;99.90;;;3.41;86.44;101044.59;4102579;29;20380;-71
2021/01/05 01:15:15;;;;;;;18.38;13.25;;;4.20;99.90;;;3.35;86.62;101044.06;4118668;28;20031;-71
2021/01/05 01:17:16;;;;;;;19.90;14.85;;;4.30;99.90;;;3.37;87.25;101038.78;4118262;28;20023;-71
2021/01/05 01:19:17;;;;;;;22.80;15.00;;;4.30;99.90;;;3.30;86.65;101043.56;4118660;28;20564;-71
2021/01/05 01:21:18;;;;;;;21.83;15.32;;;4.30;99.90;;;3.34;87.13;101038.97;4102529;29;20167;-71
2021/01/05 01:23:19;;;;;;;20.55;14.50;;;4.30;99.90;;;3.37;88.36;101027.50;4118550;28;20038;-71
2021/01/05 01:25:20;;;;;;;20.58;14.00;;;4.20;99.90;;;3.44;86.98;101045.22;4119560;28;20023;-71
2021/01/05 01:27:21;;;;;;;20.13;13.55;;;4.20;99.90;;;3.40;86.83;101046.38;4119694;28;20442;-71
2021/01/05 01:29:25;;;;;;;20.63;14.27;;;5.30;99.90;;;3.39;86.98;101029.06;4122457;28;20083;-71
2021/01/05 01:31:28;;;;;;;21.25;14.85;;;4.20;99.90;;;3.45;86.98;101040.84;4125313;28;20537;-71
2021/01/05 01:33:29;;;;;;;20.77;13.95;;;4.30;99.90;;;3.48;87.57;101032.81;4119733;28;20094;-71
2021/01/05 01:35:30;;;;;;;19.50;14.00;;;3.80;99.90;;;3.43;86.71;101034.91;4118413;28;20035;-71
2021/01/05 01:37:31;;;;;;;20.15;14.55;;;4.30;99.90;;;3.15;88.73;101034.13;4096947;28;20024;-71
2021/01/05 01:39:33;;;;;;;20.42;14.32;;;4.20;99.90;;;3.10;88.77;101038.84;4095798;29;20078;-71
2021/01/05 01:41:35;;;;;;;21.35;14.07;;;4.20;99.90;;;3.24;87.75;101038.75;4102427;28;20065;-71
2021/01/05 01:43:35;;;;;;;23.25;14.80;;;4.20;99.90;;;3.16;88.55;101041.03;4105117;28;20111;-71
2021/01/05 01:45:37;;;;;;;22.83;14.45;;;4.20;99.90;;;3.23;87.45;101038.84;4119561;28;20027;-71
2021/01/05 01:47:42;;;;;;;23.15;14.98;;;4.20;99.90;;;3.36;87.43;101044.91;4119162;28;20089;-71
2021/01/05 01:49:47;;;;;;;20.80;14.43;;;4.10;99.90;;;3.37;87.08;101037.94;4131059;28;20034;-71
2021/01/05 01:51:51;;;;;;;22.60;15.45;;;4.10;99.90;;;3.22;87.98;101048.44;4118633;28;20490;-71
2021/01/05 01:54:33;;;;;;;21.63;14.45;;;4.10;99.90;;;3.39;87.17;101062.13;4118393;28;20023;-71
2021/01/05 01:57:30;;;;;;;19.63;13.82;;;4.10;99.90;;;3.24;86.94;101053.53;4107287;28;20034;-71
2021/01/05 02:00:19;;;;;;;20.92;13.77;;;4.30;99.90;;;3.21;87.93;101065.03;4118315;28;20030;-71
2021/01/05 02:03:02;;;;;;;21.33;14.77;;;4.20;99.90;;;3.22;86.91;101056.28;4101979;28;20086;-71
2021/01/05 02:05:30;;;;;;;20.90;14.07;;;4.20;99.90;;;3.25;88.01;101066.50;4109729;28;20027;-71
2021/01/05 02:07:45;;;;;;;21.75;15.23;;;4.20;99.90;;;3.21;88.32;101065.03;4118094;28;20343;-71
2021/01/05 02:10:51;;;;;;;20.73;14.38;;;4.10;99.90;;;3.33;86.97;101064.22;4119470;28;20461;-71
2021/01/05 02:13:32;;;;;;;21.85;14.02;;;4.20;99.90;;;3.03;87.35;101055.78;4108540;28;20054;-71
2021/01/05 02:15:46;;;;;;;19.98;13.80;;;4.10;99.90;;;2.98;88.36;101068.31;4118105;28;20031;-71
2021/01/05 02:18:08;;;;;;;21.98;15.35;;;4.20;99.90;;;3.10;89.25;101069.28;4118004;28;20058;-71
2021/01/05 02:20:29;;;;;;;23.08;15.48;;;4.10;99.90;;;2.93;89.57;101065.13;4119252;28;20691;-71
2021/01/05 02:22:58;;;;;;;23.98;16.50;;;4.00;99.90;;;3.10;89.01;101070.09;4106880;28;20035;-71
2021/01/05 02:25:17;;;;;;;22.42;14.68;;;4.20;99.90;;;2.83;90.38;101064.06;4119324;28;20039;-71
2021/01/05 02:27:18;;;;;;;25.95;16.50;;;4.00;99.90;;;2.81;89.61;101071.13;4106346;28;20092;-71
2021/01/05 02:29:31;;;;;;;23.08;14.80;;;3.90;99.90;;;2.92;89.59;101067.84;4120368;28;20073;-71
2021/01/05 02:32:30;;;;;;;22.80;14.80;;;4.10;99.90;;;2.89;89.82;101075.88;4124865;28;20030;-71
2021/01/05 02:34:52;;;;;;;21.83;14.73;;;3.90;99.90;;;3.10;89.29;101075.31;4103943;28;20545;-71
2021/01/05 02:37:23;;;;;;;24.05;16.58;;;4.00;99.90;;;3.11;89.30;101069.16;4129204;28;20034;-71
2021/01/05 02:39:51;;;;;;;24.52;15.85;;;4.00;99.90;;;3.12;88.81;101070.84;4110285;28;20026;-71
2021/01/05 02:42:32;;;;;;;22.40;14.27;;;3.90;99.90;;;3.19;90.05;101071.28;4118982;28;20090;-71
2021/01/05 02:45:03;;;;;;;22.45;14.68;;;3.90;99.90;;;3.33;87.98;101079.84;4119039;28;20050;-71
2021/01/05 02:47:19;;;;;;;22.33;14.40;;;4.00;99.90;;;3.27;87.76;101069.81;4108084;28;20061;-71
2021/01/05 02:49:46;;;;;;;21.80;14.50;;;4.00;99.90;;;3.11;88.80;101069.16;4119073;28;20074;-71
2021/01/05 02:52:27;;;;;;;21.85;14.23;;;4.10;99.90;;;3.20;87.13;101076.38;4106160;28;20022;-71
2021/01/05 02:55:03;;;;;;;24.50;16.52;;;4.10;99.90;;;3.14;88.04;101075.94;4119304;28;20042;-71
2021/01/05 02:57:53;;;;;;;22.65;14.55;;;4.10;99.90;;;3.22;88.63;101082.34;4113404;28;20034;-71
2021/01/05 03:00:25;;;;;;;20.40;13.23;;;4.00;99.90;;;3.42;87.60;101072.34;4081658;28;20126;-71
2021/01/05 03:02:53;;;;;;;22.40;14.38;;;4.10;99.90;;;3.32;87.34;101083.38;4097802;28;20035;-71
2021/01/05 03:04:54;;;;;;;21.80;13.93;;;4.10;99.90;;;3.14;88.23;101079.38;4109851;28;20034;-71
2021/01/05 03:07:15;;;;;;;23.73;16.50;;;4.10;99.90;;;3.20;87.69;101078.13;4121792;28;20030;-71
2021/01/05 03:10:11;;;;;;;23.65;15.50;;;4.20;99.90;;;3.27;86.98;101079.41;4120482;28;20098;-71
2021/01/05 03:12:15;;;;;;;22.65;15.15;;;4.20;99.90;;;3.11;88.22;101091.75;4096017;29;20066;-71
2021/01/05 03:14:55;;;;;;;21.92;15.35;;;4.10;99.90;;;3.08;87.46;101087.59;4121080;28;20031;-71
2021/01/05 03:17:08;;;;;;;22.48;15.07;;;4.10;99.90;;;3.18;87.30;101091.28;4121366;28;20087;-71
2021/01/05 03:19:32;;;;;;;22.90;14.98;;;4.20;99.90;;;3.04;87.54;101091.34;4120413;28;20122;-71
2021/01/05 03:21:38;;;;;;;20.15;13.23;;;4.10;99.90;;;3.18;88.74;101091.28;4120463;28;20054;-71
2021/01/05 03:23:40;;;;;;;23.40;15.73;;;4.10;99.90;;;3.19;87.21;101084.31;4088607;29;20071;-71
2021/01/05 03:25:46;;;;;;;22.27;14.80;;;4.00;99.90;;;3.35;87.31;101088.41;4120484;28;20031;-71
2021/01/05 03:27:50;;;;;;;21.00;14.18;;;4.10;99.90;;;3.28;87.30;101081.09;4120316;28;20110;-71
2021/01/05 03:30:08;;;;;;;23.40;15.45;;;4.10;99.90;;;3.26;87.41;101080.34;4126851;28;20077;-71
2021/01/05 03:32:12;;;;;;;24.13;15.32;;;4.20;99.90;;;3.23;87.17;101088.34;4122049;28;20034;-71
2021/01/05 03:34:13;;;;;;;23.77;15.70;;;4.20;99.90;;;3.34;88.22;101084.09;4120260;28;20038;-71
2021/01/05 03:36:14;;;;;;;22.02;15.73;;;4.10;99.90;;;3.36;86.33;101084.03;4128682;28;20031;-71
2021/01/05 03:38:15;;;;;;;26.52;16.98;;;4.10;99.90;;;3.41;86.30;101092.38;4092587;28;20447;-71
2021/01/05 03:40:16;;;;;;;22.30;14.27;;;4.20;99.90;;;3.45;86.95;101083.41;4119937;28;20035;-71
2021/01/05 03:42:17;;;;;;;23.38;15.52;;;4.10;99.90;;;3.50;86.11;101083.09;4119932;28;20372;-71
2021/01/05 03:44:18;;;;;;;22.98;15.45;;;4.20;99.90;;;3.45;87.08;101086.03;4104091;29;20031;-71
2021/01/05 03:46:19;;;;;;;23.60;15.45;;;4.20;99.90;;;3.60;86.68;101091.97;4120047;28;20597;-71
2021/01/05 03:48:20;;;;;;;21.63;15.30;;;4.20;99.90;;;3.56;85.94;101085.28;4103498;29;20023;-71
2021/01/05 03:50:21;;;;;;;22.65;15.10;;;4.20;99.90;;;3.54;85.52;101067.16;4121292;28;20022;-71
2021/01/05 03:52:24;;;;;;;25.08;15.93;;;4.30;99.90;;;3.57;85.27;101068.72;4112404;28;20106;-71
2021/01/05 03:54:24;;;;;;;22.02;15.27;;;4.30;99.90;;;3.43;84.79;101068.81;4121224;28;20026;-71
2021/01/05 03:56:25;;;;;;;21.70;14.20;;;4.40;99.90;;;3.40;84.84;101069.00;4119791;28;20042;-71
2021/01/05 03:58:26;;;;;;;21.67;15.00;;;4.30;99.90;;;3.46;85.93;101071.22;4104045;29;20087;-71
2021/01/05 04:00:27;;;;;;;19.75;13.48;;;4.40;99.90;;;3.45;85.21;101072.13;4119850;28;20069;-71
2021/01/05 04:02:28;;;;;;;23.83;15.73;;;4.30;99.90;;;3.49;85.60;101076.22;4103389;28;20034;-71
2021/01/05 04:04:29;;;;;;;23.48;15.30;;;4.30;99.90;;;3.49;85.69;101063.19;4119563;28;20062;-71
2021/01/05 04:06:30;;;;;;;23.98;15.93;;;4.30;99.90;;;3.31;85.93;101073.91;4103585;28;20035;-71
2021/01/05 04:08:31;;;;;;;20.35;14.50;;;4.20;99.90;;;3.39;85.64;101070.78;4103752;29;20032;-71
2021/01/05 04:10:31;;;;;;;19.63;14.60;;;4.30;99.90;;;3.37;84.99;101069.22;4120758;28;20065;-71
2021/01/05 04:12:33;;;;;;;22.83;14.57;;;4.20;99.90;;;3.48;85.67;101082.38;4119523;28;20023;-71
2021/01/05 04:14:33;;;;;;;21.67;15.48;;;4.20;99.90;;;3.57;84.28;101063.50;4119654;28;20026;-71
2021/01/05 04:16:34;;;;;;;22.55;15.38;;;4.20;99.90;;;3.52;84.53;101061.22;4120465;28;20042;-71
2021/01/05 04:18:35;;;;;;;23.70;15.38;;;4.30;99.90;;;3.60;85.03;101076.31;4120588;28;20038;-71
2021/01/05 04:20:36;;;;;;;21.40;14.50;;;4.40;99.90;;;3.59;85.10;101090.28;4119203;28;20495;-71
2021/01/05 04:22:37;;;;;;;21.42;14.55;;;4.30;99.90;;;3.48;84.45;101074.53;4120686;28;20133;-71
2021/01/05 04:24:38;;;;;;;23.20;14.18;;;4.40;99.90;;;3.47;84.81;101049.38;4120604;28;20030;-71
2021/01/05 04:26:38;;;;;;;21.00;14.00;;;4.40;99.90;;;3.57;85.49;101077.38;4120437;28;20042;-71
2021/01/05 04:28:39;;;;;;;23.48;15.45;;;4.30;99.90;;;3.40;84.51;101079.44;4120419;28;20022;-71
2021/01/05 04:30:40;;;;;;;21.20;14.27;;;4.30;99.90;;;3.25;84.71;101076.91;4113238;28;20118;-71
2021/01/05 04:32:41;;;;;;;21.33;14.55;;;4.30;99.90;;;3.34;85.21;101075.47;4102992;29;20023;-71
2021/01/05 04:34:42;;;;;;;22.20;15.18;;;4.30;99.90;;;3.38;85.17;101082.13;4119297;28;20023;-71
2021/01/05 04:36:43;;;;;;;22.42;15.15;;;4.30;99.90;;;3.17;85.45;101084.38;4103221;29;20038;-71
2021/01/05 04:38:44;;;;;;;21.63;15.38;;;4.30;99.90;;;3.35;86.60;101083.19;4108220;28;20065;-71
2021/01/05 04:40:48;;;;;;;21.98;15.30;;;4.20;99.90;;;3.17;85.06;101081.78;4120339;28;20199;-71
2021/01/05 04:43:19;;;;;;;20.38;14.15;;;4.30;99.90;;;3.27;85.73;101101.09;4102856;29;20518;-71
2021/01/05 04:45:23;;;;;;;21.08;14.65;;;4.20;99.90;;;3.15;85.78;101099.31;4101629;28;20042;-71
2021/01/05 04:47:30;;;;;;;21.25;14.65;;;3.90;99.90;;;3.25;85.95;101092.56;4118743;28;20031;-71
2021/01/05 04:50:09;;;;;;;20.35;14.43;;;4.10;99.90;;;3.42;86.21;101081.00;4120245;28;20431;-71
2021/01/05 04:52:15;;;;;;;23.80;14.15;;;4.20;99.90;;;3.52;85.50;101089.91;4111696;28;20042;-71
2021/01/05 04:54:39;;;;;;;21.67;14.57;;;4.20;99.90;;;3.58;85.61;101080.81;4119085;28;20031;-71
2021/01/05 04:57:30;;;;;;;22.38;15.20;;;4.20;99.90;;;3.51;85.02;101084.78;4092634;28;20068;-71
2021/01/05 04:59:43;;;;;;;23.02;15.52;;;4.20;99.90;;;3.28;85.01;101086.31;4066235;29;20112;-71
2021/01/05 05:01:44;;;;;;;23.10;14.52;;;4.20;99.90;;;3.49;85.28;101086.66;4092378;28;20491;-71
2021/01/05 05:04:21;;;;;;;21.15;14.52;;;4.20;99.90;;;3.54;84.24;101084.56;4118811;28;20023;-71
2021/01/05 05:07:01;;;;;;;22.30;15.27;;;4.10;99.90;;;3.58;84.54;101078.22;4108744;28;20045;-71
2021/01/05 05:09:19;;;;;;;21.20;13.88;;;4.20;99.90;;;3.68;84.51;101080.09;4116334;28;20122;-71
2021/01/05 05:11:23;;;;;;;22.95;15.48;;;4.20;99.90;;;3.69;83.83;101075.72;4102648;29;20049;-71
2021/01/05 05:14:02;;;;;;;22.00;14.57;;;4.30;99.90;;;3.51;83.67;101093.44;4102657;29;20103;-71
2021/01/05 05:16:37;;;;;;;22.67;15.13;;;4.40;99.90;;;3.10;85.88;101101.38;4108806;28;20058;-71
2021/01/05 05:19:10;;;;;;;19.55;14.07;;;4.30;99.90;;;3.04;86.39;101107.00;4119385;28;20035;-71
2021/01/05 05:21:40;;;;;;;21.40;14.38;;;4.20;99.90;;;3.11;87.07;101089.16;4111051;28;20031;-71
2021/01/05 05:24:11;;;;;;;19.58;14.48;;;4.10;99.90;;;2.82;87.36;101098.88;4118728;28;20502;-71
2021/01/05 05:26:25;;;;;;;22.77;14.57;;;4.00;99.90;;;2.75;88.48;101102.78;4119789;28;20027;-71
2021/01/05 05:28:41;;;;;;;24.95;15.02;;;3.90;99.90;;;2.71;89.48;101090.91;4102368;29;20023;-71
2021/01/05 05:30:45;;;;;;;22.85;15.32;;;3.90;99.90;;;2.89;87.81;101094.94;4112677;28;20045;-71
2021/01/05 05:32:54;;;;;;;16.27;11.50;;;3.60;99.90;;;2.78;87.54;101090.41;4118190;28;20022;-71
2021/01/05 05:35:04;;;;;;;23.85;14.55;;;3.90;99.90;;;2.91;87.24;101103.50;4102703;28;20426;-71
2021/01/05 05:37:46;;;;;;;22.27;14.48;;;3.80;99.90;;;2.73;88.20;101099.44;4117432;28;20039;-71
2021/01/05 05:40:17;;;;;;;24.20;15.45;;;3.80;99.90;;;2.93;87.73;101099.00;4114194;28;20533;-71
2021/01/05 05:42:42;;;;;;;22.52;15.13;;;3.80;99.90;;;3.01;87.74;101106.34;4107954;28;20030;-71
2021/01/05 05:45:44;;;;;;;23.90;15.05;;;3.80;99.90;;;3.00;87.27;101102.91;4119495;28;20037;-71
2021/01/05 05:48:28;;;;;;;23.48;14.35;;;3.80;99.90;;;3.05;87.40;101106.03;4073988;29;20047;-71
2021/01/05 05:50:48;;;;;;;22.02;14.35;;;3.80;99.90;;;3.04;87.25;101103.53;4094613;28;20047;-71
2021/01/05 05:53:16;;;;;;;22.33;15.43;;;3.80;99.90;;;3.11;85.94;101103.03;4118350;28;20098;-71
2021/01/05 05:55:45;;;;;;;25.20;15.10;;;3.80;99.90;;;3.00;87.07;101110.72;4093793;28;20098;-71
2021/01/05 05:57:49;;;;;;;22.17;14.85;;;3.80;99.90;;;3.07;85.87;101103.34;4119594;28;20066;-71
2021/01/05 05:59:59;;;;;;;23.00;15.82;;;3.80;99.90;;;3.02;85.97;101106.22;4118368;28;20155;-71
2021/01/05 06:02:00;;;;;;;23.42;15.48;;;3.80;99.90;;;3.00;86.14;101096.84;4118085;28;20038;-71
2021/01/05 06:04:02;;;;;;;23.13;14.80;;;3.90;99.90;;;2.91;86.00;101102.66;4119472;28;20027;-71
2021/01/05 06:06:05;;;;;;;23.50;15.65;;;3.80;99.90;;;2.81;85.95;101102.41;4118120;28;20026;-71
2021/01/05 06:08:08;;;;;;;23.42;15.43;;;3.70;99.90;;;2.79;86.68;101105.13;4119431;28;20070;-71
2021/01/05 06:10:09;;;;;;;23.80;15.23;;;3.70;99.90;;;2.91;87.14;101116.53;4118342;28;20062;-71
2021/01/05 06:12:10;;;;;;;24.88;16.27;;;3.70;99.90;;;2.81;85.96;101120.63;4119552;28;20023;-71
2021/01/05 06:14:11;;;;;;;22.15;14.63;;;3.70;99.90;;;2.87;86.58;101103.81;4119361;28;20030;-71
2021/01/05 06:16:12;;;;;;;24.77;15.63;;;3.70;99.90;;;2.91;86.20;101119.13;4119537;28;20372;-71
2021/01/05 06:18:15;;;;;;;24.83;15.98;;;3.60;99.90;;;2.86;85.43;101115.97;4118050;28;20035;-71
2021/01/05 06:20:17;;;;;;;25.17;15.52;;;3.70;99.90;;;2.92;85.95;101126.03;4118200;28;20030;-71
2021/01/05 06:22:18;;;;;;;26.13;16.98;;;3.70;99.90;;;2.98;87.21;101135.22;4118009;28;20098;-71
2021/01/05 06:24:19;;;;;;;22.63;15.80;;;3.70;99.90;;;2.94;86.54;101121.53;4119495;28;20030;-71
2021/01/05 06:26:20;;;;;;;26.20;16.52;;;3.80;99.90;;;2.86;85.77;101122.97;4118121;28;20045;-71
2021/01/05 06:28:21;;;;;;;26.38;16.35;;;3.70;99.90;;;2.94;87.05;101128.50;4119300;28;20022;-71
2021/01/05 06:30:22;;;;;;;23.27;15.90;;;3.70;99.90;;;3.10;86.26;101129.22;4130750;28;20030;-71
2021/01/05 06:32:24;;;;;;;26.42;16.92;;;3.70;99.90;;;2.94;85.29;101128.50;4121079;28;20023;-71
2021/01/05 06:34:24;;;;;;;25.42;15.32;;;3.70;99.90;;;3.03;85.77;101123.56;4121150;28;20038;-71
2021/01/05 06:36:25;;;;;;;24.85;15.88;;;3.40;99.90;;;2.91;86.93;101129.53;4121169;28;20027;-71
2021/01/05 06:38:26;;;;;;;24.42;16.27;;;3.70;99.90;;;2.90;86.29;101140.88;4109610;28;20482;-71
2021/01/05 06:40:28;;;;;;;22.90;15.45;;;3.60;99.90;;;2.86;86.85;101141.19;4121168;28;20062;-71
2021/01/05 06:42:29;;;;;;;24.02;16.60;;;3.60;99.90;;;2.85;87.76;101134.31;4120876;28;20081;-71
2021/01/05 06:44:30;;;;;;;23.98;15.70;;;3.60;99.90;;;2.97;86.87;101136.97;4089036;29;20032;-71
2021/01/05 06:46:30;;;;;;;24.23;15.45;;;3.60;99.90;;;3.14;85.85;101135.88;4121748;28;20038;-71
2021/01/05 06:48:31;;;;;;;25.70;15.85;;;3.60;99.90;;;3.29;85.05;101140.94;4122235;28;20482;-71
2021/01/05 06:50:33;;;;;;;25.40;16.92;;;3.70;99.90;;;3.22;85.46;101129.25;4104800;29;20027;-71
2021/01/05 06:52:33;;;;;;;26.42;16.67;;;3.70;99.90;;;3.24;84.29;101143.03;4122091;28;20022;-71
2021/01/05 06:54:34;;;;;;;25.17;16.95;;;3.70;99.90;;;3.15;84.55;101146.22;4104691;29;20051;-71
2021/01/05 06:56:53;;;;;;;25.95;16.40;;;3.20;99.90;;;3.12;85.48;101151.63;4120622;28;20022;-71
2021/01/05 06:58:55;;;;;;;23.95;16.85;;;3.60;99.90;;;2.98;86.14;101156.91;4120640;28;20031;-71
2021/01/05 07:00:56;;;;;;;26.13;16.42;;;3.50;99.90;;;2.82;86.69;101148.38;4121965;28;20034;-71
2021/01/05 07:02:58;;;;;;;25.55;16.60;;;2.90;99.90;;;2.92;84.68;101143.41;4120288;28;20033;-71
2021/01/05 07:04:59;;;;;;;26.88;16.88;;;3.40;99.90;;;2.96;85.59;101150.94;4104330;28;20062;-71
2021/01/05 07:07:01;;;;;;;24.35;16.35;;;3.40;99.90;;;2.87;85.97;101142.88;4121650;28;20038;-71
2021/01/05 07:09:02;;;;;;;23.25;15.60;;;3.30;99.90;;;2.73;86.37;101149.78;4120639;28;20098;-71
2021/01/05 07:11:03;;;;;;;25.13;16.02;;;3.20;99.90;;;2.64;86.47;101149.50;4121560;28;20031;-71
2021/01/05 07:13:04;;;;;;;24.08;16.02;;;3.20;99.90;;;2.51;86.20;101141.63;4120528;28;20027;-71
2021/01/05 07:15:12;;;;;;;22.15;15.27;;;2.80;99.90;;;2.45;87.04;101143.78;4104559;29;20075;-71
2021/01/05 07:17:12;;;;;;;24.10;16.20;;;3.00;99.90;;;2.42;86.99;101142.19;4120140;28;20057;-71
2021/01/05 07:19:15;;;;;;;23.20;15.20;;;2.90;99.90;;;2.40;87.09;101148.41;4121739;28;20026;-71
2021/01/05 07:21:15;;;;;;;24.98;17.30;;;2.90;99.90;;;2.43;86.84;101143.88;4104334;28;20035;-71
2021/01/05 07:23:16;;;;;;;24.77;15.40;;;2.80;99.90;;;2.56;85.09;101149.16;4104233;29;20039;-71
2021/01/05 07:25:17;;;;;;;22.70;15.95;;;2.80;99.90;;;2.47;86.08;101152.34;4120347;28;20505;-71
2021/01/05 07:27:18;;;;;;;23.95;16.70;;;2.90;99.90;;;2.38;86.06;101145.09;4121577;28;20026;-71
2021/01/05 07:29:22;;;;;;;23.35;15.45;;;3.00;99.90;;;2.38;85.55;101151.13;4122753;28;20018;-71
2021/01/05 07:31:22;;;;;;;23.00;15.18;;;2.90;99.90;;;2.38;85.61;101156.34;4111070;28;20122;-71
2021/01/05 07:33:23;;;;;;;22.42;15.70;;;2.70;99.90;;;2.27;86.37;101147.53;4104262;29;20094;-71
2021/01/05 07:35:24;;;;;;;20.50;14.02;;;2.60;99.90;;;2.27;85.85;101147.53;4121348;28;20497;-71
2021/01/05 07:37:30;;;;;;;24.33;15.50;;;2.60;99.90;;;2.13;86.16;101149.19;4116741;28;20031;-71
2021/01/05 07:39:33;;;;;;;26.00;16.88;;;2.60;99.90;;;2.09;86.42;101145.06;4113968;28;20117;-71
2021/01/05 07:41:34;;;;;;;22.92;15.10;;;2.60;99.90;;;2.12;86.66;101155.31;4119601;28;20042;-71
2021/01/05 07:43:35;;;;;;;26.45;15.63;;;2.60;99.90;;;2.18;85.98;101156.72;4119585;28;20047;-72
2021/01/05 07:45:36;;;;;;;22.77;15.55;;;2.60;99.90;;;2.06;86.38;101153.06;4103904;28;20027;-72
2021/01/05 07:47:38;;;;;;;25.65;16.58;;;2.50;99.90;;;2.11;85.87;101164.06;4103620;29;20542;-71
2021/01/05 07:49:39;;;;;;;23.05;15.68;;;2.50;99.90;;;2.23;86.28;101163.31;4119559;28;20034;-71
2021/01/05 07:51:46;;;;;;;23.65;16.88;;;2.60;99.90;;;2.15;86.63;101175.94;4103996;29;20071;-71
2021/01/05 07:53:47;;;;;;;24.35;16.63;;;2.50;99.90;;;2.26;86.15;101175.31;4103797;29;20219;-71
2021/01/05 07:55:48;;;;;;;26.67;17.42;;;2.50;99.90;;;2.20;86.80;101183.47;4121032;28;20081;-71
2021/01/05 07:57:51;;;;;;;26.63;16.85;;;2.60;99.90;;;2.23;86.79;101173.72;4119757;28;20026;-71
2021/01/05 07:59:52;;;;;;;24.80;17.02;;;2.70;99.90;;;2.34;86.49;101180.03;4120005;28;20105;-71
2021/01/05 08:01:52;;;;;;;26.48;17.48;;;2.70;99.90;;;2.37;86.68;101179.84;4119546;28;20085;-71
2021/01/05 08:03:53;;;;;;;25.70;17.40;;;2.70;99.90;;;2.32;85.97;101189.72;4103701;29;20038;-71
2021/01/05 08:05:54;;;;;;;26.27;16.60;;;2.80;99.90;;;2.36;86.87;101193.81;4103679;28;20031;-71
2021/01/05 08:07:56;;;;;;;26.85;17.85;;;2.90;99.90;;;2.33;86.10;101188.78;4119630;28;20035;-71
2021/01/05 08:09:58;;;;;;;26.75;17.52;;;2.90;99.90;;;2.51;86.06;101193.69;4119532;28;20025;-72
2021/01/05 08:11:58;;;;;;;27.25;17.23;;;3.00;99.90;;;2.60;85.28;101189.69;4117261;28;20042;-75
2021/01/05 08:13:59;;;;;;;27.00;17.75;;;3.10;99.90;;;2.44;86.12;101200.22;4103089;29;20023;-75
2021/01/05 08:16:00;;;;;;;26.35;17.30;;;3.10;99.90;;;2.40;87.08;101206.53;4119115;28;20034;-73
2021/01/05 08:18:01;;;;;;;26.95;16.70;;;3.10;99.90;;;2.32;87.07;101202.72;4118469;28;20438;-73
2021/01/05 08:20:04;;;;;;;25.10;17.17;;;3.10;99.90;;;2.34;87.46;101198.25;4103186;28;20054;-72
2021/01/05 08:22:05;;;;;;;24.75;16.67;;;3.10;99.90;;;2.51;86.62;101191.09;4103186;29;20526;-71
2021/01/05 08:24:06;;;;;;;26.70;18.00;;;3.00;99.90;;;2.51;86.23;101190.28;4120455;28;20051;-70
2021/01/05 08:26:11;;;;;;;26.58;17.58;;;3.10;99.90;;;2.53;87.02;101204.03;4120264;28;20047;-70
2021/01/05 08:28:12;;;;;;;28.65;17.77;;;3.20;99.90;;;2.45;87.42;101188.06;4118624;28;20482;-71
2021/01/05 08:30:37;;;;;;;26.05;17.63;;;3.10;99.90;;;2.66;85.12;101202.34;4114009;28;20122;-70
2021/01/05 08:32:37;;;;;;;24.77;17.17;;;3.20;99.90;;;2.60;86.48;101195.75;4093199;28;20023;-71
2021/01/05 08:34:38;;;;;;;29.35;18.08;;;3.20;99.90;;;2.54;85.27;101201.31;4120205;28;20265;-72
2021/01/05 08:36:39;;;;;;;24.17;15.90;;;3.20;99.90;;;2.60;85.59;101213.13;4119956;28;20066;-71
2021/01/05 08:38:40;;;;;;;26.95;17.15;;;3.20;99.90;;;2.54;85.28;101214.34;4106187;28;20462;-71
2021/01/05 08:40:41;;;;;;;25.17;16.98;;;3.20;99.90;;;2.57;84.82;101202.94;4099663;28;20047;-72
2021/01/05 08:42:42;;;;;;;29.80;18.33;;;3.20;99.90;;;2.65;86.15;101217.16;4101775;29;20047;-72
2021/01/05 08:44:43;;;;;;;27.73;17.83;;;3.20;99.90;;;2.55;86.08;101212.56;4119660;28;20035;-71
2021/01/05 08:46:44;;;;;;;25.70;17.77;;;3.10;99.90;;;2.54;85.29;101213.53;4102066;29;20093;-71
2021/01/05 08:48:45;;;;;;;25.23;17.58;;;3.00;99.90;;;2.67;83.91;101214.44;4102443;29;20113;-72
2021/01/05 08:50:46;;;;;;;25.85;17.70;;;3.10;99.90;;;2.61;85.21;101220.84;4102459;28;20024;-72
2021/01/05 08:52:47;;;;;;;25.77;16.98;;;3.10;99.90;;;2.41;86.22;101215.19;4101947;28;20062;-71
2021/01/05 08:54:48;;;;;;;26.83;17.80;;;3.10;99.90;;;2.52;85.61;101217.97;4118664;28;20027;-71